createdAt,value
2023-05-06T00:00:57.747Z,7.50
2023-05-06T00:03:24.445Z,6.60
2023-05-06T00:05:51.078Z,7.50
2023-05-06T00:08:17.488Z,7.70
2023-05-06T00:10:45.644Z,7.70
2023-05-06T00:13:12.462Z,7.20
2023-05-06T00:15:39.891Z,7.40
2023-05-06T00:18:06.514Z,7.20
2023-05-06T00:20:32.991Z,7.50
2023-05-06T00:22:59.592Z,7.60
2023-05-06T00:25:26.068Z,7.30
2023-05-06T00:27:53.499Z,7.60
2023-05-06T00:30:20.027Z,7.20
2023-05-06T00:32:46.478Z,8.10
2023-05-06T00:35:12.997Z,8.00
2023-05-06T00:37:39.500Z,7.30
2023-05-06T00:40:06.754Z,8.10
2023-05-06T00:42:33.487Z,7.70
2023-05-06T00:44:59.952Z,8.10
2023-05-06T00:47:26.532Z,7.40
2023-05-06T00:49:53.142Z,7.40
2023-05-06T00:52:20.071Z,7.10
2023-05-06T00:54:46.602Z,7.50
2023-05-06T00:57:13.668Z,8.20
2023-05-06T00:59:40.260Z,8.10
2023-05-06T01:02:06.718Z,7.70
2023-05-06T01:04:33.194Z,8.60
2023-05-06T01:07:23.805Z,7.60
2023-05-06T01:10:16.110Z,7.90
2023-05-06T01:13:01.896Z,7.70
2023-05-06T01:15:33.790Z,7.70
2023-05-06T01:18:04.294Z,7.80
2023-05-06T01:20:31.818Z,8.50
2023-05-06T01:22:58.451Z,8.00
2023-05-06T01:25:24.938Z,8.30
2023-05-06T01:27:51.359Z,8.60
2023-05-06T01:30:19.461Z,7.60
2023-05-06T01:33:09.046Z,8.60
2023-05-06T01:35:47.499Z,8.20
2023-05-06T01:38:32.837Z,8.10
2023-05-06T01:41:01.742Z,8.40
2023-05-06T01:43:40.881Z,8.00
2023-05-06T01:46:12.336Z,8.10
2023-05-06T01:48:39.679Z,8.40
2023-05-06T01:51:06.171Z,9.20
2023-05-06T01:53:32.916Z,8.70
2023-05-06T01:55:59.365Z,8.70
2023-05-06T01:58:25.893Z,8.60
2023-05-06T02:00:52.411Z,9.00
2023-05-06T02:03:18.936Z,9.10
2023-05-06T02:05:45.700Z,9.30
2023-05-06T02:08:12.198Z,7.90
2023-05-06T02:10:38.676Z,9.40
2023-05-06T02:13:05.694Z,9.30
2023-05-06T02:15:32.190Z,8.40
2023-05-06T02:17:58.694Z,8.90
2023-05-06T02:20:25.340Z,9.10
2023-05-06T02:22:51.795Z,9.50
2023-05-06T02:25:18.268Z,9.20
2023-05-06T02:27:44.740Z,9.20
2023-05-06T02:30:12.095Z,8.70
2023-05-06T02:32:38.619Z,8.80
2023-05-06T02:35:05.565Z,8.80
2023-05-06T02:37:31.987Z,8.60
2023-05-06T02:39:58.500Z,8.80
2023-05-06T02:42:24.968Z,9.40
2023-05-06T02:44:51.437Z,9.50
2023-05-06T02:47:17.898Z,8.70
2023-05-06T02:49:44.368Z,9.90
2023-05-06T02:52:10.822Z,9.10
2023-05-06T02:54:37.258Z,9.80
2023-05-06T02:57:03.741Z,8.70
2023-05-06T02:59:30.190Z,9.10
2023-05-06T03:01:56.602Z,8.00
2023-05-06T03:04:23.135Z,9.00
2023-05-06T03:06:49.686Z,8.90
2023-05-06T03:09:16.121Z,8.50
2023-05-06T03:11:42.584Z,8.30
2023-05-06T03:14:09.064Z,8.30
2023-05-06T03:16:35.568Z,8.80
2023-05-06T03:19:02.177Z,8.80
2023-05-06T03:21:28.701Z,8.40
2023-05-06T03:23:55.276Z,8.80
2023-05-06T03:26:21.691Z,8.80
2023-05-06T03:28:48.185Z,8.20
2023-05-06T03:31:14.638Z,8.30
2023-05-06T03:33:41.113Z,8.20
2023-05-06T03:36:07.694Z,8.50
2023-05-06T03:38:34.188Z,8.80
2023-05-06T03:41:00.671Z,8.50
2023-05-06T03:43:27.143Z,9.50
2023-05-06T03:45:53.631Z,9.00
2023-05-06T03:48:20.074Z,9.10
2023-05-06T03:50:46.720Z,8.20
2023-05-06T03:53:13.265Z,8.80
2023-05-06T03:55:39.724Z,9.50
2023-05-06T03:58:06.231Z,9.50
2023-05-06T04:00:32.800Z,9.10
2023-05-06T04:02:59.283Z,8.90
2023-05-06T04:05:25.829Z,9.80
2023-05-06T04:07:52.302Z,8.40
2023-05-06T04:10:18.858Z,9.50
2023-05-06T04:12:45.347Z,9.20
2023-05-06T04:15:12.095Z,9.20
2023-05-06T04:17:38.719Z,9.50
2023-05-06T04:20:05.664Z,8.70
2023-05-06T04:22:32.182Z,9.80
2023-05-06T04:24:58.637Z,9.20
2023-05-06T04:27:25.135Z,9.00
2023-05-06T04:29:51.597Z,9.60
2023-05-06T04:32:18.070Z,9.20
2023-05-06T04:34:44.490Z,8.60
2023-05-06T04:37:10.951Z,8.90
2023-05-06T04:39:37.379Z,8.90
2023-05-06T04:42:03.992Z,9.20
2023-05-06T04:44:30.415Z,9.80
2023-05-06T04:46:56.840Z,9.20
2023-05-06T04:49:23.325Z,9.30
2023-05-06T04:51:49.799Z,9.10
2023-05-06T04:54:16.215Z,8.60
2023-05-06T04:56:42.655Z,9.10
2023-05-06T04:59:09.081Z,9.30
2023-05-06T05:01:35.551Z,8.80
2023-05-06T05:04:01.982Z,9.60
2023-05-06T05:06:28.428Z,9.10
2023-05-06T05:08:55.476Z,9.20
2023-05-06T05:11:22.038Z,9.20
2023-05-06T05:13:48.463Z,9.40
2023-05-06T05:16:14.982Z,10.40
2023-05-06T05:18:41.443Z,9.10
2023-05-06T05:21:07.874Z,9.00
2023-05-06T05:23:34.339Z,9.90
2023-05-06T05:26:01.701Z,9.50
2023-05-06T05:28:28.135Z,9.50
2023-05-06T05:30:54.610Z,9.80
2023-05-06T05:33:21.304Z,9.90
2023-05-06T05:35:47.810Z,9.40
2023-05-06T05:38:14.252Z,9.10
2023-05-06T05:40:40.713Z,9.30
2023-05-06T05:43:07.173Z,9.40
2023-05-06T05:45:33.604Z,9.30
2023-05-06T05:48:00.121Z,9.30
2023-05-06T05:50:26.729Z,8.60
2023-05-06T05:52:53.190Z,8.90
2023-05-06T05:55:19.640Z,7.90
2023-05-06T05:57:46.091Z,8.80
2023-05-06T06:00:13.773Z,8.80
2023-05-06T06:02:40.426Z,8.50
2023-05-06T06:05:07.695Z,9.00
2023-05-06T06:07:34.411Z,9.40
2023-05-06T06:10:00.939Z,8.70
2023-05-06T06:12:27.408Z,9.10
2023-05-06T06:14:53.919Z,9.60
2023-05-06T06:17:20.459Z,8.70
2023-05-06T06:19:46.934Z,8.70
2023-05-06T06:22:13.636Z,8.50
2023-05-06T06:24:40.102Z,8.30
2023-05-06T06:27:06.521Z,9.00
2023-05-06T06:29:32.978Z,8.30
2023-05-06T06:31:59.483Z,7.80
2023-05-06T06:34:25.973Z,8.60
2023-05-06T06:36:52.381Z,8.20
2023-05-06T06:39:18.821Z,8.20
2023-05-06T06:41:45.374Z,8.30
2023-05-06T06:44:11.793Z,8.20
2023-05-06T06:46:38.241Z,8.30
2023-05-06T06:49:04.707Z,8.40
2023-05-06T06:51:31.223Z,8.90
2023-05-06T06:53:57.758Z,8.60
2023-05-06T06:56:24.260Z,8.00
2023-05-06T06:58:52.371Z,8.30
2023-05-06T07:01:19.687Z,8.60
2023-05-06T07:03:46.203Z,7.80
2023-05-06T07:06:15.031Z,8.40
2023-05-06T07:08:42.164Z,8.20
2023-05-06T07:11:08.683Z,9.80
2023-05-06T07:13:35.209Z,11.30
2023-05-06T07:16:01.640Z,7.80
2023-05-06T07:18:28.100Z,8.20
2023-05-06T07:20:54.604Z,7.40
2023-05-06T07:23:21.103Z,7.90
2023-05-06T07:25:47.715Z,7.10
2023-05-06T07:28:14.590Z,7.50
2023-05-06T07:30:41.820Z,7.20
2023-05-06T07:33:08.342Z,7.70
2023-05-06T07:35:34.850Z,7.20
2023-05-06T07:38:01.521Z,7.20
2023-05-06T07:40:27.981Z,7.80
2023-05-06T07:42:54.633Z,8.10
2023-05-06T07:45:21.120Z,7.90
2023-05-06T07:47:47.623Z,6.90
2023-05-06T07:50:14.364Z,7.90
2023-05-06T07:52:40.911Z,6.60
2023-05-06T07:55:08.330Z,7.60
2023-05-06T07:57:35.637Z,7.20
2023-05-06T08:00:04.001Z,7.40
2023-05-06T08:02:30.899Z,6.90
2023-05-06T08:04:57.449Z,7.40
2023-05-06T08:07:23.882Z,7.50
2023-05-06T08:09:50.348Z,7.70
2023-05-06T08:12:16.792Z,6.80
2023-05-06T08:14:43.283Z,6.60
2023-05-06T08:17:09.756Z,6.70
2023-05-06T08:19:36.215Z,7.20
2023-05-06T08:22:02.664Z,6.70
2023-05-06T08:24:29.092Z,6.90
2023-05-06T08:26:55.537Z,6.40
2023-05-06T08:29:22.025Z,7.10
2023-05-06T08:31:48.493Z,7.20
2023-05-06T08:34:15.014Z,7.20
2023-05-06T08:36:41.884Z,6.70
2023-05-06T08:39:08.292Z,7.20
2023-05-06T08:41:36.552Z,12.10
2023-05-06T08:44:04.328Z,6.60
2023-05-06T08:46:31.123Z,7.20
2023-05-06T08:49:00.397Z,6.30
2023-05-06T08:51:29.370Z,5.90
2023-05-06T08:54:03.599Z,6.10
2023-05-06T08:56:34.755Z,6.50
2023-05-06T08:59:01.292Z,12.00
2023-05-06T09:01:28.659Z,6.30
2023-05-06T09:03:58.344Z,6.50
2023-05-06T09:06:24.983Z,7.00
2023-05-06T09:08:51.423Z,6.70
2023-05-06T09:11:28.897Z,6.00
2023-05-06T09:14:13.150Z,7.30
2023-05-06T09:16:43.900Z,6.50
2023-05-06T09:19:11.102Z,6.30
2023-05-06T09:21:42.843Z,7.00
2023-05-06T09:24:10.519Z,6.20
2023-05-06T09:26:39.182Z,5.90
2023-05-06T09:29:06.588Z,5.30
2023-05-06T09:31:33.439Z,5.70
2023-05-06T09:34:00.573Z,6.00
2023-05-06T09:36:28.299Z,5.30
2023-05-06T09:38:55.908Z,5.90
2023-05-06T09:41:23.734Z,5.10
2023-05-06T09:43:50.219Z,5.20
2023-05-06T09:46:17.173Z,5.10
2023-05-06T09:48:45.926Z,5.20
2023-05-06T09:51:12.819Z,4.70
2023-05-06T09:53:39.434Z,5.10
2023-05-06T09:56:07.211Z,5.00
2023-05-06T09:58:35.303Z,4.70
2023-05-06T10:01:03.684Z,4.40
2023-05-06T10:03:30.993Z,4.60
2023-05-06T10:05:58.009Z,4.90
2023-05-06T10:08:25.206Z,4.30
2023-05-06T10:10:51.984Z,4.40
2023-05-06T10:13:20.445Z,4.10
2023-05-06T10:15:49.163Z,3.90
2023-05-06T10:18:16.966Z,4.50
2023-05-06T10:20:44.700Z,6.90
2023-05-06T10:23:24.374Z,4.60
2023-05-06T10:25:55.680Z,5.00
2023-05-06T10:30:58.101Z,3.70
2023-05-06T10:33:26.092Z,3.70
2023-05-06T10:36:00.972Z,4.10
2023-05-06T10:38:37.847Z,4.80
2023-05-06T10:41:04.560Z,4.30
2023-05-06T10:43:35.116Z,4.20
2023-05-06T10:46:16.002Z,4.80
2023-05-06T10:49:04.758Z,4.80
2023-05-06T10:51:35.275Z,4.60
2023-05-06T10:54:18.065Z,5.10
2023-05-06T10:56:50.470Z,4.80
2023-05-06T10:59:27.548Z,4.30
2023-05-06T11:02:08.806Z,4.40
2023-05-06T11:07:15.388Z,4.30
2023-05-06T11:10:05.162Z,3.90
2023-05-06T11:12:52.722Z,3.90
2023-05-06T11:15:26.402Z,4.00
2023-05-06T11:17:54.599Z,4.10
2023-05-06T11:20:24.048Z,4.10
2023-05-06T11:22:50.542Z,4.00
2023-05-06T11:25:53.250Z,4.20
2023-05-06T11:28:20.396Z,7.90
2023-05-06T11:30:55.288Z,4.80
2023-05-06T11:33:24.951Z,4.00
2023-05-06T11:35:51.490Z,4.40
2023-05-06T11:38:17.949Z,4.50
2023-05-06T11:40:44.473Z,4.10
2023-05-06T11:43:15.585Z,4.30
2023-05-06T11:48:16.573Z,4.40
2023-05-06T11:50:47.470Z,4.70
2023-05-06T11:53:16.861Z,5.40
2023-05-06T11:55:44.653Z,5.70
2023-05-06T11:58:37.370Z,5.30
2023-05-06T12:01:04.342Z,4.80
2023-05-06T12:03:32.844Z,7.70
2023-05-06T12:06:00.212Z,5.40
2023-05-06T12:08:34.754Z,5.10
2023-05-06T12:11:08.986Z,5.40
2023-05-06T12:13:35.936Z,5.00
2023-05-06T12:16:04.336Z,4.80
2023-05-06T12:18:30.979Z,4.90
2023-05-06T12:20:57.662Z,5.40
2023-05-06T12:23:24.141Z,4.60
2023-05-06T12:26:06.279Z,5.00
2023-05-06T12:28:35.460Z,5.00
2023-05-06T12:31:21.605Z,4.30
2023-05-06T12:33:49.218Z,4.30
2023-05-06T12:36:18.012Z,4.60
2023-05-06T12:38:51.704Z,4.40
2023-05-06T12:41:21.962Z,4.60
2023-05-06T12:43:48.763Z,4.80
2023-05-06T12:46:16.797Z,4.60
2023-05-06T12:48:56.696Z,4.80
2023-05-06T12:51:23.634Z,4.60
2023-05-06T12:53:50.095Z,4.10
2023-05-06T12:56:16.656Z,5.70
2023-05-06T12:58:43.212Z,5.30
2023-05-06T13:01:09.724Z,5.60
2023-05-06T13:03:38.302Z,4.80
2023-05-06T13:06:05.421Z,4.30
2023-05-06T13:08:32.016Z,4.70
2023-05-06T13:10:58.493Z,4.40
2023-05-06T13:13:24.943Z,5.00
2023-05-06T13:15:53.274Z,5.00
2023-05-06T13:18:19.794Z,4.10
2023-05-06T13:20:46.279Z,4.60
2023-05-06T13:23:12.805Z,4.60
2023-05-06T13:25:48.164Z,4.30
2023-05-06T13:28:25.672Z,4.70
2023-05-06T13:30:52.312Z,5.10
2023-05-06T13:33:18.885Z,4.70
2023-05-06T13:35:45.385Z,5.80
2023-05-06T13:38:11.827Z,4.40
2023-05-06T13:40:38.299Z,6.20
2023-05-06T13:43:04.777Z,7.60
2023-05-06T13:45:33.295Z,4.60
2023-05-06T13:47:59.763Z,5.70
2023-05-06T13:50:26.226Z,4.40
2023-05-06T13:52:52.665Z,5.20
2023-05-06T13:55:19.598Z,4.50
2023-05-06T13:57:46.269Z,19.30
2023-05-06T14:00:13.338Z,12.10
2023-05-06T14:02:39.830Z,7.30
2023-05-06T14:05:06.933Z,5.70
2023-05-06T14:07:33.383Z,7.30
2023-05-06T14:09:59.840Z,9.20
2023-05-06T14:12:26.333Z,5.70
2023-05-06T14:14:52.759Z,8.30
2023-05-06T14:17:19.269Z,6.30
2023-05-06T14:19:45.732Z,6.90
2023-05-06T14:22:12.440Z,11.10
2023-05-06T14:24:38.920Z,7.70
2023-05-06T14:27:05.404Z,7.00
2023-05-06T14:29:31.952Z,5.30
2023-05-06T14:31:58.511Z,5.30
2023-05-06T14:34:24.987Z,9.60
2023-05-06T14:36:51.407Z,9.10
2023-05-06T14:39:17.833Z,5.80
2023-05-06T14:41:44.312Z,15.70
2023-05-06T14:44:10.811Z,7.50
2023-05-06T14:46:37.262Z,6.20
2023-05-06T14:49:03.717Z,6.00
2023-05-06T14:51:30.188Z,5.90
2023-05-06T14:53:56.693Z,6.40
2023-05-06T14:56:23.155Z,6.30
2023-05-06T14:58:49.586Z,5.80
2023-05-06T15:01:16.058Z,5.60
2023-05-06T15:03:42.571Z,6.30
2023-05-06T15:06:09.110Z,11.10
2023-05-06T15:08:35.599Z,6.80
2023-05-06T15:11:03.880Z,7.30
2023-05-06T15:13:30.789Z,6.40
2023-05-06T15:15:57.230Z,6.30
2023-05-06T15:18:23.702Z,6.10
2023-05-06T15:20:50.334Z,6.10
2023-05-06T15:23:16.783Z,6.10
2023-05-06T15:25:43.246Z,6.00
2023-05-06T15:28:09.707Z,9.10
2023-05-06T15:30:37.784Z,6.00
2023-05-06T15:33:05.324Z,8.10
2023-05-06T15:35:31.836Z,7.00
2023-05-06T15:37:58.441Z,6.60
2023-05-06T15:40:25.694Z,6.30
2023-05-06T15:42:52.319Z,6.00
2023-05-06T15:45:19.372Z,6.20
2023-05-06T15:47:45.892Z,6.50
2023-05-06T15:50:24.674Z,8.90
2023-05-06T15:52:58.793Z,8.60
2023-05-06T15:55:26.214Z,8.60
2023-05-06T15:57:53.264Z,6.80
2023-05-06T16:00:20.017Z,6.70
2023-05-06T16:02:46.774Z,8.50
2023-05-06T16:05:13.425Z,7.40
2023-05-06T16:07:39.886Z,6.10
2023-05-06T16:10:07.012Z,6.80
2023-05-06T16:12:33.535Z,6.20
2023-05-06T16:15:00.572Z,6.30
2023-05-06T16:17:27.140Z,6.30
2023-05-06T16:19:53.644Z,6.50
2023-05-06T16:22:20.092Z,7.00
2023-05-06T16:24:46.590Z,6.30
2023-05-06T16:27:13.050Z,6.30
2023-05-06T16:29:39.528Z,7.20
2023-05-06T16:32:05.982Z,6.50
2023-05-06T16:34:32.459Z,7.30
2023-05-06T16:36:58.928Z,7.90
2023-05-06T16:39:25.374Z,8.50
2023-05-06T16:41:51.871Z,6.70
2023-05-06T16:44:18.312Z,6.90
2023-05-06T16:46:44.801Z,6.70
2023-05-06T16:49:11.242Z,6.60
2023-05-06T16:51:37.700Z,6.30
2023-05-06T16:54:04.200Z,6.50
2023-05-06T16:56:43.824Z,6.50
2023-05-06T16:59:19.467Z,6.70
2023-05-06T17:01:48.092Z,5.80
2023-05-06T17:04:14.564Z,5.70
2023-05-06T17:06:41.052Z,7.00
2023-05-06T17:09:07.511Z,7.10
2023-05-06T17:11:33.958Z,6.50
2023-05-06T17:14:00.398Z,6.60
2023-05-06T17:16:26.879Z,6.50
2023-05-06T17:18:53.405Z,7.60
2023-05-06T17:21:19.881Z,6.90
2023-05-06T17:23:46.356Z,8.60
2023-05-06T17:26:12.837Z,7.20
2023-05-06T17:28:39.329Z,7.50
2023-05-06T17:31:05.834Z,6.60
2023-05-06T17:33:32.348Z,6.90
2023-05-06T17:35:58.854Z,7.40
2023-05-06T17:38:25.397Z,7.00
2023-05-06T17:40:51.919Z,6.90
2023-05-06T17:43:18.405Z,7.20
2023-05-06T17:45:44.856Z,6.80
2023-05-06T17:48:11.410Z,6.90
2023-05-06T17:50:37.945Z,6.60
2023-05-06T17:53:04.416Z,6.60
2023-05-06T17:55:30.907Z,11.10
2023-05-06T17:57:58.168Z,11.00
2023-05-06T18:00:24.695Z,8.90
2023-05-06T18:02:51.227Z,7.80
2023-05-06T18:05:17.767Z,6.80
2023-05-06T18:07:44.299Z,6.40
2023-05-06T18:10:10.954Z,7.10
2023-05-06T18:12:37.527Z,6.70
2023-05-06T18:15:04.992Z,6.90
2023-05-06T18:17:31.516Z,7.10
2023-05-06T18:19:57.984Z,7.50
2023-05-06T18:22:24.499Z,7.20
2023-05-06T18:24:50.971Z,7.40
2023-05-06T18:27:17.393Z,7.60
2023-05-06T18:29:43.848Z,7.60
2023-05-06T18:32:10.329Z,7.20
2023-05-06T18:34:36.838Z,7.20
2023-05-06T18:37:03.306Z,10.30
2023-05-06T18:39:29.976Z,9.10
2023-05-06T18:41:56.436Z,8.40
2023-05-06T18:44:22.910Z,8.70
2023-05-06T18:46:49.423Z,19.00
2023-05-06T18:49:15.893Z,24.30
2023-05-06T18:51:42.332Z,16.90
2023-05-06T18:54:08.838Z,12.30
2023-05-06T18:56:35.389Z,11.60
2023-05-06T18:59:01.904Z,10.50
2023-05-06T19:01:28.449Z,9.40
2023-05-06T19:03:55.134Z,9.10
2023-05-06T19:06:21.748Z,8.90
2023-05-06T19:08:48.228Z,9.30
2023-05-06T19:11:15.817Z,9.80
2023-05-06T19:13:42.985Z,9.40
2023-05-06T19:16:09.429Z,9.60
2023-05-06T19:18:35.956Z,9.30
2023-05-06T19:21:02.450Z,9.90
2023-05-06T19:23:28.912Z,10.90
2023-05-06T19:25:55.393Z,10.40
2023-05-06T19:28:21.876Z,10.40
2023-05-06T19:30:48.477Z,11.50
2023-05-06T19:33:15.074Z,12.70
2023-05-06T19:35:41.594Z,13.80
2023-05-06T19:38:08.940Z,13.20
2023-05-06T19:40:35.643Z,11.10
2023-05-06T19:43:02.284Z,10.00
2023-05-06T19:45:28.849Z,9.70
2023-05-06T19:47:55.274Z,10.20
2023-05-06T19:50:21.813Z,10.80
2023-05-06T19:52:48.286Z,10.40
2023-05-06T19:55:14.748Z,10.50
2023-05-06T19:57:41.212Z,11.10
2023-05-06T20:00:08.526Z,10.60
2023-05-06T20:02:36.299Z,9.80
2023-05-06T20:05:03.588Z,9.80
2023-05-06T20:07:30.086Z,15.90
2023-05-06T20:09:56.574Z,11.00
2023-05-06T20:12:24.965Z,9.90
2023-05-06T20:14:51.392Z,11.70
2023-05-06T20:17:18.422Z,10.20
2023-05-06T20:19:45.395Z,11.80
2023-05-06T20:22:11.862Z,10.90
2023-05-06T20:24:41.322Z,10.50
2023-05-06T20:27:08.121Z,11.30
2023-05-06T20:29:34.604Z,10.90
2023-05-06T20:32:01.348Z,11.00
2023-05-06T20:34:28.035Z,11.80
2023-05-06T20:36:54.484Z,12.30
2023-05-06T20:39:21.085Z,11.60
2023-05-06T20:41:47.578Z,12.60
2023-05-06T20:44:14.065Z,11.70
2023-05-06T20:46:40.554Z,11.40
2023-05-06T20:49:07.820Z,11.20
2023-05-06T20:51:34.326Z,10.00
2023-05-06T20:54:01.209Z,10.50
2023-05-06T20:56:28.224Z,10.80
2023-05-06T20:58:55.902Z,10.40
2023-05-06T21:01:24.087Z,11.40
2023-05-06T21:03:50.782Z,10.20
2023-05-06T21:06:18.679Z,10.50
2023-05-06T21:08:46.364Z,10.60
2023-05-06T21:11:13.476Z,11.10
2023-05-06T21:13:40.355Z,10.80
2023-05-06T21:16:06.760Z,10.90
2023-05-06T21:18:33.278Z,10.60
2023-05-06T21:20:59.849Z,10.80
2023-05-06T21:23:26.485Z,9.70
2023-05-06T21:25:53.106Z,11.80
2023-05-06T21:28:19.604Z,11.00
2023-05-06T21:30:46.116Z,10.50
2023-05-06T21:33:12.623Z,11.20
2023-05-06T21:35:39.102Z,11.10
2023-05-06T21:38:05.600Z,11.90
2023-05-06T21:40:32.091Z,11.30
2023-05-06T21:42:58.537Z,11.40
2023-05-06T21:45:25.032Z,11.10
2023-05-06T21:47:51.606Z,10.90
2023-05-06T21:50:18.195Z,11.60
2023-05-06T21:52:44.682Z,10.80
2023-05-06T21:55:11.504Z,11.60
2023-05-06T21:57:38.319Z,10.60
2023-05-06T22:00:06.099Z,12.90
2023-05-06T22:02:32.622Z,12.30
2023-05-06T22:04:59.098Z,11.50
2023-05-06T22:07:25.546Z,11.00
2023-05-06T22:09:51.975Z,11.00
2023-05-06T22:12:18.455Z,11.40
2023-05-06T22:14:44.899Z,11.90
2023-05-06T22:17:11.413Z,12.10
2023-05-06T22:19:37.918Z,11.70
2023-05-06T22:22:04.735Z,12.30
2023-05-06T22:24:31.195Z,12.50
2023-05-06T22:26:57.640Z,11.90
2023-05-06T22:29:24.191Z,13.10
2023-05-06T22:31:50.647Z,12.90
2023-05-06T22:34:17.148Z,12.50
2023-05-06T22:36:43.655Z,12.30
2023-05-06T22:39:10.087Z,13.30
2023-05-06T22:41:36.522Z,12.60
2023-05-06T22:44:03.010Z,13.30
2023-05-06T22:46:29.498Z,11.80
2023-05-06T22:48:55.981Z,13.70
2023-05-06T22:51:22.407Z,12.80
2023-05-06T22:53:48.844Z,13.00
2023-05-06T22:56:15.273Z,13.10
2023-05-06T22:58:41.713Z,12.70
2023-05-06T23:01:08.272Z,13.20
2023-05-06T23:03:35.559Z,12.70
2023-05-06T23:06:02.102Z,12.70
2023-05-06T23:08:28.582Z,13.70
2023-05-06T23:10:55.031Z,12.80
2023-05-06T23:13:21.565Z,12.60
2023-05-06T23:15:48.129Z,12.90
2023-05-06T23:18:14.677Z,12.30
2023-05-06T23:20:41.173Z,12.60
2023-05-06T23:23:07.627Z,12.40
2023-05-06T23:25:34.075Z,12.80
2023-05-06T23:28:00.530Z,11.90
2023-05-06T23:30:27.109Z,11.90
2023-05-06T23:32:53.681Z,12.10
2023-05-06T23:35:20.156Z,13.00
2023-05-06T23:37:46.613Z,12.10
2023-05-06T23:40:13.541Z,12.60
2023-05-06T23:42:40.556Z,13.00
2023-05-06T23:45:07.843Z,13.10
2023-05-06T23:47:34.348Z,12.80
2023-05-06T23:50:00.865Z,13.20
2023-05-06T23:52:27.349Z,12.10
2023-05-06T23:54:53.812Z,12.00
2023-05-06T23:57:20.380Z,13.30
2023-05-06T23:59:46.810Z,14.30
